createdAt,value
2018-04-08T00:00:43.906Z,1003.3
2018-04-08T00:01:46.624Z,1003.3
2018-04-08T00:02:49.057Z,1003.3
2018-04-08T00:03:51.491Z,1003.3
2018-04-08T00:04:53.943Z,1003.4
2018-04-08T00:05:56.668Z,1003.3
2018-04-08T00:06:59.105Z,1003.3
2018-04-08T00:08:01.543Z,1003.3
2018-04-08T00:09:03.980Z,1003.3
2018-04-08T00:10:06.706Z,1003.3
2018-04-08T00:11:09.150Z,1003.3
2018-04-08T00:12:11.968Z,1003.3
2018-04-08T00:13:14.409Z,1003.3
2018-04-08T00:14:16.832Z,1003.2
2018-04-08T00:15:19.268Z,1003.3
2018-04-08T00:16:21.702Z,1003.2
2018-04-08T00:17:24.136Z,1003.2
2018-04-08T00:18:26.577Z,1003.2
2018-04-08T00:19:29.315Z,1003.2
2018-04-08T00:20:31.760Z,1003.2
2018-04-08T00:21:34.202Z,1003.2
2018-04-08T00:22:36.637Z,1003.2
2018-04-08T00:23:39.350Z,1003.2
2018-04-08T00:24:41.783Z,1003.2
2018-04-08T00:25:44.219Z,1003.1
2018-04-08T00:26:46.660Z,1003.1
2018-04-08T00:27:49.102Z,1003.2
2018-04-08T00:28:51.536Z,1003.1
2018-04-08T00:29:53.978Z,1003.1
2018-04-08T00:30:56.410Z,1003.1
2018-04-08T00:31:58.846Z,1003.1
2018-04-08T00:33:01.281Z,1003.2
2018-04-08T00:34:04.387Z,1003.2
2018-04-08T00:35:06.830Z,1003.2
2018-04-08T00:36:09.270Z,1003.1
2018-04-08T00:37:12.099Z,1003.1
2018-04-08T00:38:14.542Z,1003.2
2018-04-08T00:39:17.362Z,1003.2
2018-04-08T00:40:19.806Z,1003.2
2018-04-08T00:41:22.247Z,1003.2
2018-04-08T00:42:24.668Z,1003.2
2018-04-08T00:43:27.110Z,1003.2
2018-04-08T00:44:29.543Z,1003.2
2018-04-08T00:45:31.976Z,1003.2
2018-04-08T00:46:34.417Z,1003.2
2018-04-08T00:47:36.861Z,1003.2
2018-04-08T00:48:39.578Z,1003.2
2018-04-08T00:49:42.318Z,1003.2
2018-04-08T00:50:44.751Z,1003.2
2018-04-08T00:51:47.462Z,1003.2
2018-04-08T00:52:49.902Z,1003.1
2018-04-08T00:53:52.628Z,1003.1
2018-04-08T00:54:55.064Z,1003.1
2018-04-08T00:55:57.510Z,1003.1
2018-04-08T00:56:59.939Z,1003.1
2018-04-08T00:58:02.662Z,1003.1
2018-04-08T00:59:05.869Z,1003.1
2018-04-08T01:00:08.620Z,1003.2
2018-04-08T01:01:11.438Z,1003.1
2018-04-08T01:02:14.167Z,1003.1
2018-04-08T01:03:16.594Z,1003.1
2018-04-08T01:04:19.048Z,1003.1
2018-04-08T01:05:21.486Z,1003.1
2018-04-08T01:06:23.924Z,1003.1
2018-04-08T01:07:26.657Z,1003.1
2018-04-08T01:08:29.381Z,1003.1
2018-04-08T01:09:31.822Z,1003.2
2018-04-08T01:10:34.250Z,1003.1
2018-04-08T01:11:36.970Z,1003.2
2018-04-08T01:12:39.416Z,1003.1
2018-04-08T01:13:41.847Z,1003.2
2018-04-08T01:14:44.277Z,1003.1
2018-04-08T01:15:46.725Z,1003.1
2018-04-08T01:16:49.160Z,1003.1
2018-04-08T01:17:51.598Z,1003.1
2018-04-08T01:18:54.316Z,1003.2
2018-04-08T01:19:56.750Z,1003.1
2018-04-08T01:20:59.178Z,1003.2
2018-04-08T01:22:01.615Z,1003.1
2018-04-08T01:23:04.484Z,1003.2
2018-04-08T01:24:06.926Z,1003.2
2018-04-08T01:25:09.932Z,1003.2
2018-04-08T01:26:12.365Z,1003.1
2018-04-08T01:27:14.801Z,1003.2
2018-04-08T01:28:17.241Z,1003.1
2018-04-08T01:29:19.659Z,1003.1
2018-04-08T01:30:22.101Z,1003.1
2018-04-08T01:31:24.533Z,1003.1
2018-04-08T01:32:27.352Z,1003.1
2018-04-08T01:33:29.784Z,1003.1
2018-04-08T01:34:32.226Z,1003.1
2018-04-08T01:35:34.949Z,1003.1
2018-04-08T01:36:37.659Z,1003.1
2018-04-08T01:37:40.694Z,1003.1
2018-04-08T01:38:43.128Z,1003
2018-04-08T01:39:45.550Z,1003
2018-04-08T01:40:47.995Z,1003
2018-04-08T01:41:50.436Z,1003.1
2018-04-08T01:42:53.253Z,1003
2018-04-08T01:43:55.693Z,1003
2018-04-08T01:44:58.128Z,1003
2018-04-08T01:46:00.553Z,1003
2018-04-08T01:47:03.003Z,1003
2018-04-08T01:48:05.428Z,1003
2018-04-08T01:49:07.864Z,1003
2018-04-08T01:50:10.303Z,1003
2018-04-08T01:51:12.739Z,1003
2018-04-08T01:52:15.178Z,1003
2018-04-08T01:53:17.619Z,1003
2018-04-08T01:54:20.328Z,1003
2018-04-08T01:55:22.767Z,1003
2018-04-08T01:56:25.201Z,1003
2018-04-08T01:57:27.632Z,1003
2018-04-08T01:58:30.070Z,1003
2018-04-08T01:59:32.501Z,1003
2018-04-08T02:00:34.934Z,1002.9
2018-04-08T02:01:37.660Z,1002.9
2018-04-08T02:02:40.090Z,1002.9
2018-04-08T02:03:42.533Z,1002.9
2018-04-08T02:04:44.957Z,1002.9
2018-04-08T02:05:47.391Z,1003
2018-04-08T02:06:49.831Z,1002.9
2018-04-08T02:07:52.829Z,1002.9
2018-04-08T02:08:55.275Z,1002.9
2018-04-08T02:09:57.709Z,1003
2018-04-08T02:11:00.426Z,1003
2018-04-08T02:12:03.168Z,1003
2018-04-08T02:13:05.614Z,1003
2018-04-08T02:14:08.039Z,1002.9
2018-04-08T02:15:10.474Z,1002.9
2018-04-08T02:16:12.910Z,1003
2018-04-08T02:17:15.336Z,1002.9
2018-04-08T02:18:17.774Z,1002.9
2018-04-08T02:19:20.213Z,1002.9
2018-04-08T02:20:22.634Z,1003
2018-04-08T02:21:25.376Z,1002.9
2018-04-08T02:22:28.108Z,1003
2018-04-08T02:23:30.833Z,1003
2018-04-08T02:24:33.588Z,1002.9
2018-04-08T02:25:36.017Z,1002.9
2018-04-08T02:26:38.444Z,1002.9
2018-04-08T02:27:40.891Z,1002.9
2018-04-08T02:28:43.316Z,1002.9
2018-04-08T02:29:45.747Z,1002.9
2018-04-08T02:30:48.185Z,1002.9
2018-04-08T02:31:50.612Z,1002.9
2018-04-08T02:32:53.352Z,1002.9
2018-04-08T02:33:56.081Z,1002.9
2018-04-08T02:34:58.504Z,1002.9
2018-04-08T02:36:00.953Z,1002.9
2018-04-08T02:37:04.256Z,1002.9
2018-04-08T02:38:06.696Z,1002.9
2018-04-08T02:39:09.119Z,1002.8
2018-04-08T02:40:11.548Z,1002.8
2018-04-08T02:41:13.979Z,1002.9
2018-04-08T02:42:17.002Z,1002.8
2018-04-08T02:43:19.723Z,1002.8
2018-04-08T02:44:22.539Z,1002.9
2018-04-08T02:45:24.962Z,1002.9
2018-04-08T02:46:27.406Z,1002.8
2018-04-08T02:47:29.845Z,1002.8
2018-04-08T02:48:33.171Z,1002.8
2018-04-08T02:49:35.605Z,1002.8
2018-04-08T02:50:38.037Z,1002.8
2018-04-08T02:51:40.469Z,1002.8
2018-04-08T02:52:42.907Z,1002.8
2018-04-08T02:53:46.009Z,1002.7
2018-04-08T02:54:48.460Z,1002.8
2018-04-08T02:55:51.273Z,1002.7
2018-04-08T02:56:53.708Z,1002.7
2018-04-08T02:57:56.146Z,1002.8
2018-04-08T02:58:58.570Z,1002.8
2018-04-08T03:00:00.998Z,1002.7
2018-04-08T03:01:03.439Z,1002.7
2018-04-08T03:02:05.870Z,1002.8
2018-04-08T03:03:08.297Z,1002.7
2018-04-08T03:04:10.734Z,1002.7
2018-04-08T03:05:13.165Z,1002.8
2018-04-08T03:06:15.913Z,1002.7
2018-04-08T03:07:18.343Z,1002.8
2018-04-08T03:08:21.077Z,1002.8
2018-04-08T03:09:23.515Z,1002.7
2018-04-08T03:10:26.239Z,1002.8
2018-04-08T03:11:28.997Z,1002.8
2018-04-08T03:12:31.714Z,1002.8
2018-04-08T03:13:34.147Z,1002.7
2018-04-08T03:14:36.580Z,1002.8
2018-04-08T03:15:39.007Z,1002.8
2018-04-08T03:16:41.435Z,1002.7
2018-04-08T03:17:43.885Z,1002.8
2018-04-08T03:18:46.319Z,1002.8
2018-04-08T03:19:48.759Z,1002.7
2018-04-08T03:20:51.186Z,1002.7
2018-04-08T03:21:53.624Z,1002.7
2018-04-08T03:22:56.451Z,1002.7
2018-04-08T03:23:58.887Z,1002.7
2018-04-08T03:25:01.318Z,1002.7
2018-04-08T03:26:04.038Z,1002.7
2018-04-08T03:27:06.493Z,1002.7
2018-04-08T03:28:08.912Z,1002.7
2018-04-08T03:29:11.345Z,1002.6
2018-04-08T03:30:14.082Z,1002.7
2018-04-08T03:31:16.524Z,1002.7
2018-04-08T03:32:18.957Z,1002.7
2018-04-08T03:33:21.394Z,1002.7
2018-04-08T03:34:23.924Z,1002.7
2018-04-08T03:35:26.363Z,1002.7
2018-04-08T03:36:28.794Z,1002.6
2018-04-08T03:37:31.232Z,1002.6
2018-04-08T03:38:33.660Z,1002.7
2018-04-08T03:39:36.093Z,1002.6
2018-04-08T03:40:38.524Z,1002.6
2018-04-08T03:41:40.949Z,1002.6
2018-04-08T03:42:43.393Z,1002.6
2018-04-08T03:43:45.819Z,1002.5
2018-04-08T03:44:48.255Z,1002.5
2018-04-08T03:45:50.686Z,1002.6
2018-04-08T03:46:53.123Z,1002.5
2018-04-08T03:47:55.840Z,1002.5
2018-04-08T03:48:58.278Z,1002.5
2018-04-08T03:50:00.702Z,1002.5
2018-04-08T03:51:03.148Z,1002.5
2018-04-08T03:52:05.579Z,1002.5
2018-04-08T03:53:08.013Z,1002.5
2018-04-08T03:54:10.438Z,1002.5
2018-04-08T03:55:12.870Z,1002.5
2018-04-08T03:56:15.299Z,1002.5
2018-04-08T03:57:18.123Z,1002.4
2018-04-08T03:58:20.555Z,1002.5
2018-04-08T03:59:22.988Z,1002.5
2018-04-08T04:00:25.417Z,1002.5
2018-04-08T04:01:27.863Z,1002.5
2018-04-08T04:02:30.861Z,1002.4
2018-04-08T04:03:33.295Z,1002.4
2018-04-08T04:04:35.729Z,1002.4
2018-04-08T04:05:38.150Z,1002.4
2018-04-08T04:06:40.583Z,1002.5
2018-04-08T04:07:43.024Z,1002.4
2018-04-08T04:08:45.445Z,1002.4
2018-04-08T04:09:47.877Z,1002.4
2018-04-08T04:10:50.611Z,1002.4
2018-04-08T04:11:53.339Z,1002.3
2018-04-08T04:12:55.778Z,1002.4
2018-04-08T04:13:58.217Z,1002.3
2018-04-08T04:15:00.637Z,1002.4
2018-04-08T04:16:03.070Z,1002.3
2018-04-08T04:17:05.508Z,1002.3
2018-04-08T04:18:07.935Z,1002.4
2018-04-08T04:19:10.656Z,1002.4
2018-04-08T04:20:13.082Z,1002.3
2018-04-08T04:21:15.807Z,1002.3
2018-04-08T04:22:18.241Z,1002.3
2018-04-08T04:23:20.672Z,1002.3
2018-04-08T04:24:23.100Z,1002.3
2018-04-08T04:25:26.084Z,1002.3
2018-04-08T04:26:28.540Z,1002.4
2018-04-08T04:27:30.972Z,1002.3
2018-04-08T04:28:33.412Z,1002.3
2018-04-08T04:29:35.844Z,1002.3
2018-04-08T04:30:38.276Z,1002.3
2018-04-08T04:31:40.710Z,1002.3
2018-04-08T04:32:43.149Z,1002.3
2018-04-08T04:33:45.570Z,1002.3
2018-04-08T04:34:47.997Z,1002.3
2018-04-08T04:35:50.431Z,1002.3
2018-04-08T04:36:52.860Z,1002.3
2018-04-08T04:37:55.286Z,1002.3
2018-04-08T04:38:57.725Z,1002.3
2018-04-08T04:40:00.154Z,1002.3
2018-04-08T04:41:02.641Z,1002.3
2018-04-08T04:42:05.079Z,1002.3
2018-04-08T04:43:07.511Z,1002.3
2018-04-08T04:44:09.950Z,1002.3
2018-04-08T04:45:12.374Z,1002.3
2018-04-08T04:46:14.808Z,1002.3
2018-04-08T04:47:17.237Z,1002.3
2018-04-08T04:48:20.359Z,1002.3
2018-04-08T04:49:22.781Z,1002.3
2018-04-08T04:50:25.227Z,1002.3
2018-04-08T04:51:28.341Z,1002.3
2018-04-08T04:52:31.057Z,1002.2
2018-04-08T04:53:33.499Z,1002.2
2018-04-08T04:54:35.927Z,1002.2
2018-04-08T04:55:38.383Z,1002.3
2018-04-08T04:56:41.093Z,1002.3
2018-04-08T04:57:43.516Z,1002.3
2018-04-08T04:58:45.948Z,1002.3
2018-04-08T04:59:48.390Z,1002.3
2018-04-08T05:00:50.817Z,1002.3
2018-04-08T05:01:53.243Z,1002.3
2018-04-08T05:02:55.673Z,1002.3
2018-04-08T05:03:58.094Z,1002.3
2018-04-08T05:05:00.543Z,1002.3
2018-04-08T05:06:02.970Z,1002.3
2018-04-08T05:07:05.971Z,1002.3
2018-04-08T05:08:08.407Z,1002.3
2018-04-08T05:09:11.127Z,1002.3
2018-04-08T05:10:13.560Z,1002.3
2018-04-08T05:11:15.997Z,1002.4
2018-04-08T05:12:18.422Z,1002.3
2018-04-08T05:13:21.153Z,1002.4
2018-04-08T05:14:23.579Z,1002.3
2018-04-08T05:15:26.013Z,1002.3
2018-04-08T05:16:28.436Z,1002.4
2018-04-08T05:17:30.866Z,1002.4
2018-04-08T05:18:33.295Z,1002.4
2018-04-08T05:19:35.730Z,1002.4
2018-04-08T05:20:38.149Z,1002.4
2018-04-08T05:21:40.587Z,1002.4
2018-04-08T05:22:43.609Z,1002.4
2018-04-08T05:23:46.361Z,1002.4
2018-04-08T05:24:48.800Z,1002.4
2018-04-08T05:25:51.234Z,1002.4
2018-04-08T05:26:53.664Z,1002.4
2018-04-08T05:27:56.684Z,1002.4
2018-04-08T05:28:59.111Z,1002.3
2018-04-08T05:30:01.545Z,1002.4
2018-04-08T05:31:04.306Z,1002.3
2018-04-08T05:32:06.723Z,1002.4
2018-04-08T05:33:09.198Z,1002.4
2018-04-08T05:34:11.664Z,1002.4
2018-04-08T05:35:14.383Z,1002.3
2018-04-08T05:36:16.817Z,1002.4
2018-04-08T05:37:19.259Z,1002.4
2018-04-08T05:38:21.677Z,1002.4
2018-04-08T05:39:24.109Z,1002.3
2018-04-08T05:40:26.551Z,1002.4
2018-04-08T05:41:28.980Z,1002.3
2018-04-08T05:42:31.406Z,1002.3
2018-04-08T05:43:33.831Z,1002.4
2018-04-08T05:44:36.638Z,1002.4
2018-04-08T05:45:39.085Z,1002.4
2018-04-08T05:46:41.802Z,1002.3
2018-04-08T05:47:44.224Z,1002.4
2018-04-08T05:48:46.660Z,1002.4
2018-04-08T05:49:49.090Z,1002.4
2018-04-08T05:50:51.522Z,1002.3
2018-04-08T05:51:53.959Z,1002.4
2018-04-08T05:52:56.389Z,1002.4
2018-04-08T05:53:58.825Z,1002.4
2018-04-08T05:55:01.261Z,1002.4
2018-04-08T05:56:03.691Z,1002.4
2018-04-08T05:57:06.521Z,1002.5
2018-04-08T05:58:08.960Z,1002.4
2018-04-08T05:59:11.674Z,1002.4
2018-04-08T06:00:14.110Z,1002.3
2018-04-08T06:01:16.537Z,1002.5
2018-04-08T06:02:18.971Z,1002.5
2018-04-08T06:03:21.393Z,1002.5
2018-04-08T06:04:23.842Z,1002.4
2018-04-08T06:05:26.274Z,1002.6
2018-04-08T06:06:28.716Z,1002.4
2018-04-08T06:07:31.156Z,1002.5
2018-04-08T06:08:33.585Z,1002.5
2018-04-08T06:09:36.021Z,1002.4
2018-04-08T06:10:38.456Z,1002.5
2018-04-08T06:11:40.880Z,1002.5
2018-04-08T06:12:43.306Z,1002.6
2018-04-08T06:13:45.749Z,1002.6
2018-04-08T06:14:48.182Z,1002.5
2018-04-08T06:15:50.618Z,1002.6
2018-04-08T06:16:53.052Z,1002.5
2018-04-08T06:17:55.777Z,1002.5
2018-04-08T06:18:58.217Z,1002.5
2018-04-08T06:20:00.660Z,1002.6
2018-04-08T06:21:03.655Z,1002.5
2018-04-08T06:22:06.089Z,1002.5
2018-04-08T06:23:08.821Z,1002.5
2018-04-08T06:24:11.248Z,1002.6
2018-04-08T06:25:13.676Z,1002.5
2018-04-08T06:26:16.108Z,1002.6
2018-04-08T06:27:18.547Z,1002.5
2018-04-08T06:28:21.264Z,1002.6
2018-04-08T06:29:23.700Z,1002.6
2018-04-08T06:30:26.126Z,1002.6
2018-04-08T06:31:28.570Z,1002.6
2018-04-08T06:32:31.009Z,1002.8
2018-04-08T06:33:33.834Z,1002.7
2018-04-08T06:34:36.266Z,1002.6
2018-04-08T06:35:38.707Z,1002.7
2018-04-08T06:36:41.135Z,1002.6
2018-04-08T06:37:43.560Z,1002.6
2018-04-08T06:38:46.286Z,1002.6
2018-04-08T06:39:48.721Z,1002.6
2018-04-08T06:40:51.472Z,1002.6
2018-04-08T06:41:53.908Z,1002.6
2018-04-08T06:42:56.340Z,1002.7
2018-04-08T06:43:58.779Z,1002.7
2018-04-08T06:45:01.216Z,1002.6
2018-04-08T06:46:04.235Z,1002.6
2018-04-08T06:47:06.668Z,1002.6
2018-04-08T06:48:09.400Z,1002.6
2018-04-08T06:49:11.834Z,1002.6
2018-04-08T06:50:14.268Z,1002.6
2018-04-08T06:51:16.704Z,1002.6
2018-04-08T06:52:19.520Z,1002.5
2018-04-08T06:53:22.238Z,1002.6
2018-04-08T06:54:24.678Z,1002.5
2018-04-08T06:55:27.094Z,1002.5
2018-04-08T06:56:29.546Z,1002.6
2018-04-08T06:57:31.982Z,1002.6
2018-04-08T06:58:34.697Z,1002.6
2018-04-08T06:59:37.133Z,1002.5
2018-04-08T07:00:39.575Z,1002.5
2018-04-08T07:01:42.294Z,1002.5
2018-04-08T07:02:45.016Z,1002.5
2018-04-08T07:03:47.465Z,1002.5
2018-04-08T07:04:49.896Z,1002.5
2018-04-08T07:08:35.604Z,1002.5
2018-04-08T07:10:16.382Z,1002.4
2018-04-08T07:11:18.823Z,1002.4
2018-04-08T07:12:21.254Z,1002.4
2018-04-08T07:13:23.698Z,1002.4
2018-04-08T07:14:26.142Z,1002.4
2018-04-08T07:15:28.855Z,1002.3
2018-04-08T07:16:31.294Z,1002.4
2018-04-08T07:17:34.053Z,1002.4
2018-04-08T07:18:36.511Z,1002.4
2018-04-08T07:19:38.908Z,1002.4
2018-04-08T07:20:41.345Z,1002.4
2018-04-08T07:21:44.079Z,1002.4
2018-04-08T07:22:46.818Z,1002.3
2018-04-08T07:23:49.259Z,1002.4
2018-04-08T07:24:52.083Z,1002.5
2018-04-08T07:25:54.521Z,1002.4
2018-04-08T07:26:56.958Z,1002.4
2018-04-08T07:27:59.395Z,1002.4
2018-04-08T07:29:01.832Z,1002.4
2018-04-08T07:30:04.266Z,1002.4
2018-04-08T07:31:06.701Z,1002.5
2018-04-08T07:32:09.434Z,1002.5
2018-04-08T07:33:11.872Z,1002.4
2018-04-08T07:34:14.693Z,1002.5
2018-04-08T07:35:17.125Z,1002.5
2018-04-08T07:36:19.563Z,1002.5
2018-04-08T07:37:21.999Z,1002.5
2018-04-08T07:38:24.820Z,1002.5
2018-04-08T07:39:27.255Z,1002.5
2018-04-08T07:40:29.696Z,1002.5
2018-04-08T07:41:32.789Z,1002.5
2018-04-08T07:42:35.246Z,1002.4
2018-04-08T07:43:38.250Z,1002.4
2018-04-08T07:44:40.688Z,1002.4
2018-04-08T07:45:43.128Z,1002.5
2018-04-08T07:46:45.564Z,1002.5
2018-04-08T07:47:48.286Z,1002.6
2018-04-08T07:48:50.730Z,1002.4
2018-04-08T07:49:53.176Z,1002.5
2018-04-08T07:50:55.914Z,1002.5
2018-04-08T07:51:58.355Z,1002.5
2018-04-08T07:53:00.796Z,1002.4
2018-04-08T07:54:03.234Z,1002.4
2018-04-08T07:55:05.952Z,1002.4
2018-04-08T07:56:08.381Z,1002.4
2018-04-08T07:57:10.828Z,1002.4
2018-04-08T07:58:13.257Z,1002.4
2018-04-08T07:59:15.700Z,1002.4
2018-04-08T08:00:18.131Z,1002.2
2018-04-08T08:01:20.962Z,1002.4
2018-04-08T08:02:24.061Z,1002.4
2018-04-08T08:03:26.507Z,1002.3
2018-04-08T08:04:28.943Z,1002.3
2018-04-08T08:05:31.758Z,1002.5
2018-04-08T08:06:34.201Z,1002.4
2018-04-08T08:07:36.639Z,1002.4
2018-04-08T08:08:39.084Z,1002.3
2018-04-08T08:09:41.521Z,1002.4
2018-04-08T08:10:43.959Z,1002.4
2018-04-08T08:11:46.397Z,1002.4
2018-04-08T08:12:48.840Z,1002.4
2018-04-08T08:13:51.275Z,1002.4
2018-04-08T08:14:53.733Z,1002.4
2018-04-08T08:15:56.145Z,1002.4
2018-04-08T08:16:58.589Z,1002.4
2018-04-08T08:18:01.029Z,1002.4
2018-04-08T08:19:03.472Z,1002.4
2018-04-08T08:20:05.907Z,1002.4
2018-04-08T08:21:08.637Z,1002.3
2018-04-08T08:22:11.063Z,1002.4
2018-04-08T08:23:13.502Z,1002.3
2018-04-08T08:24:15.938Z,1002.4
2018-04-08T08:25:18.376Z,1002.4
2018-04-08T08:26:20.813Z,1002.3
2018-04-08T08:27:23.252Z,1002.4
2018-04-08T08:28:25.693Z,1002.4
2018-04-08T08:29:28.135Z,1002.3
2018-04-08T08:30:30.572Z,1002.3
2018-04-08T08:31:33.025Z,1002.3
2018-04-08T08:32:36.028Z,1002.3
2018-04-08T08:33:38.861Z,1002.3
2018-04-08T08:34:41.303Z,1002.3
2018-04-08T08:35:43.742Z,1002.3
2018-04-08T08:36:46.181Z,1002.4
2018-04-08T08:37:48.616Z,1002.3
2018-04-08T08:38:51.070Z,1002.3
2018-04-08T08:39:53.520Z,1002.4
2018-04-08T08:40:56.236Z,1002.4
2018-04-08T08:41:58.682Z,1002.4
2018-04-08T08:43:01.120Z,1002.4
2018-04-08T08:44:03.565Z,1002.4
2018-04-08T08:45:06.005Z,1002.4
2018-04-08T08:46:08.439Z,1002.3
2018-04-08T08:47:10.882Z,1002.3
2018-04-08T08:48:13.336Z,1002.3
2018-04-08T08:49:15.833Z,1002.4
2018-04-08T08:50:18.516Z,1002.3
2018-04-08T08:51:21.264Z,1002.4
2018-04-08T08:52:23.701Z,1002.3
2018-04-08T08:53:26.208Z,1002.3
2018-04-08T08:54:28.652Z,1002.3
2018-04-08T08:55:31.084Z,1002.3
2018-04-08T08:56:33.539Z,1002.3
2018-04-08T08:57:36.368Z,1002.3
2018-04-08T08:58:38.815Z,1002.2
2018-04-08T08:59:41.260Z,1002.2
2018-04-08T09:00:44.158Z,1002.2
2018-04-08T09:01:46.602Z,1002.3
2018-04-08T09:02:49.149Z,1002.3
2018-04-08T09:03:51.584Z,1002.3
2018-04-08T09:04:54.066Z,1002.1
2018-04-08T09:05:56.828Z,1002.3
2018-04-08T09:07:00.157Z,1002.3
2018-04-08T09:08:02.675Z,1002.3
2018-04-08T09:09:05.342Z,1002.2
2018-04-08T09:10:07.782Z,1002.2
2018-04-08T09:11:10.680Z,1002.2
2018-04-08T09:12:13.234Z,1002.2
2018-04-08T09:13:15.743Z,1002.2
2018-04-08T09:14:18.208Z,1002.2
2018-04-08T09:15:20.823Z,1002.2
2018-04-08T09:16:23.278Z,1002.1
2018-04-08T09:17:25.769Z,1002.2
2018-04-08T09:18:28.432Z,1002.2
2018-04-08T09:19:31.378Z,1002.3
2018-04-08T09:20:34.885Z,1002.2
2018-04-08T09:21:37.337Z,1002.2
2018-04-08T09:22:40.109Z,1002.2
2018-04-08T09:23:42.603Z,1002.2
2018-04-08T09:24:45.857Z,1002.1
2018-04-08T09:25:48.404Z,1002.2
2018-04-08T09:26:50.902Z,1002.2
2018-04-08T09:27:53.718Z,1002.2
2018-04-08T09:28:56.175Z,1002.2
2018-04-08T09:29:58.630Z,1002.2
2018-04-08T09:31:01.610Z,1002.2
2018-04-08T09:32:05.303Z,1002.1
2018-04-08T09:33:07.809Z,1002.1
2018-04-08T09:34:10.250Z,1002
2018-04-08T09:35:12.701Z,1002.1
2018-04-08T09:36:15.192Z,1002.1
2018-04-08T09:37:17.599Z,1002.2
2018-04-08T09:38:20.043Z,1002.2
2018-04-08T09:39:22.495Z,1002
2018-04-08T09:40:24.945Z,1002.1
2018-04-08T09:41:27.392Z,1002.1
2018-04-08T09:42:29.839Z,1002.1
2018-04-08T09:43:32.286Z,1002.1
2018-04-08T09:44:34.737Z,1002.1
2018-04-08T09:45:37.203Z,1002.1
2018-04-08T09:46:39.650Z,1002.1
2018-04-08T09:47:42.107Z,1002.1
2018-04-08T09:48:44.835Z,1002.1
2018-04-08T09:49:47.295Z,1002.1
2018-04-08T09:50:49.749Z,1002.1
2018-04-08T09:51:52.482Z,1002
2018-04-08T09:52:54.915Z,1002
2018-04-08T09:53:57.689Z,1002.1
2018-04-08T09:55:00.141Z,1002
2018-04-08T09:56:02.953Z,1002
2018-04-08T09:57:05.691Z,1002
2018-04-08T09:58:08.137Z,1001.9
2018-04-08T09:59:10.586Z,1002
2018-04-08T10:00:13.324Z,1002
2018-04-08T10:01:15.769Z,1002
2018-04-08T10:02:18.226Z,1001.9
2018-04-08T10:03:20.679Z,1002
2018-04-08T10:04:23.131Z,1002
2018-04-08T10:05:25.617Z,1001.9
2018-04-08T10:06:28.026Z,1002
2018-04-08T10:07:30.485Z,1001.9
2018-04-08T10:08:32.933Z,1001.9
2018-04-08T10:09:35.764Z,1001.9
2018-04-08T10:10:38.218Z,1001.8
2018-04-08T10:11:40.661Z,1001.9
2018-04-08T10:12:43.107Z,1001.8
2018-04-08T10:13:45.875Z,1001.9
2018-04-08T10:14:48.599Z,1001.9
2018-04-08T10:15:51.055Z,1001.9
2018-04-08T10:16:53.508Z,1001.8
2018-04-08T10:17:55.991Z,1001.8
2018-04-08T10:18:58.438Z,1001.8
2018-04-08T10:20:01.211Z,1001.8
2018-04-08T10:21:03.917Z,1001.8
2018-04-08T10:22:06.657Z,1001.8
2018-04-08T10:23:09.095Z,1001.8
2018-04-08T10:24:11.542Z,1001.9
2018-04-08T10:25:13.991Z,1001.7
2018-04-08T10:26:16.442Z,1001.8
2018-04-08T10:27:19.187Z,1001.7
2018-04-08T10:28:22.026Z,1001.7
2018-04-08T10:29:24.895Z,1001.7
2018-04-08T10:30:27.665Z,1001.7
2018-04-08T10:31:30.124Z,1001.8
2018-04-08T10:32:32.864Z,1001.7
2018-04-08T10:33:35.601Z,1001.6
2018-04-08T10:34:38.155Z,1001.7
2018-04-08T10:35:40.887Z,1001.7
2018-04-08T10:36:43.343Z,1001.6
2018-04-08T10:37:45.796Z,1001.6
2018-04-08T10:38:48.252Z,1001.7
2018-04-08T10:39:50.713Z,1001.6
2018-04-08T10:40:53.159Z,1001.7
2018-04-08T10:41:55.610Z,1001.6
2018-04-08T10:42:58.069Z,1001.6
2018-04-08T10:44:00.514Z,1001.7
2018-04-08T10:45:03.364Z,1001.6
2018-04-08T10:46:05.816Z,1001.7
2018-04-08T10:47:08.639Z,1001.6
2018-04-08T10:48:11.093Z,1001.6
2018-04-08T10:49:13.552Z,1001.6
2018-04-08T10:50:15.998Z,1001.6
2018-04-08T10:51:18.751Z,1001.5
2018-04-08T10:52:21.497Z,1001.6
2018-04-08T10:53:23.947Z,1001.5
2018-04-08T10:54:26.398Z,1001.6
2018-04-08T10:55:28.848Z,1001.5
2018-04-08T10:56:31.875Z,1001.6
2018-04-08T10:57:34.617Z,1001.6
2018-04-08T10:58:37.068Z,1001.5
2018-04-08T10:59:39.531Z,1001.5
2018-04-08T11:00:41.992Z,1001.5
2018-04-08T11:01:44.439Z,1001.5
2018-04-08T11:02:47.182Z,1001.5
2018-04-08T11:03:49.661Z,1001.5
2018-04-08T11:04:52.171Z,1001.5
2018-04-08T11:05:54.538Z,1001.5
2018-04-08T11:06:56.992Z,1001.4
2018-04-08T11:07:59.435Z,1001.4
2018-04-08T11:09:01.901Z,1001.4
2018-04-08T11:10:04.347Z,1001.5
2018-04-08T11:11:06.803Z,1001.5
2018-04-08T11:12:09.256Z,1001.6
2018-04-08T11:13:11.705Z,1001.5
2018-04-08T11:14:14.160Z,1001.5
2018-04-08T11:15:16.895Z,1001.5
2018-04-08T11:16:19.722Z,1001.4
2018-04-08T11:17:22.472Z,1001.5
2018-04-08T11:18:24.906Z,1001.5
2018-04-08T11:19:27.355Z,1001.6
2018-04-08T11:20:29.810Z,1001.4
2018-04-08T11:21:32.646Z,1001.5
2018-04-08T11:22:35.145Z,1001.5
2018-04-08T11:23:37.563Z,1001.5
2018-04-08T11:24:40.011Z,1001.6
2018-04-08T11:25:42.473Z,1001.5
2018-04-08T11:26:44.932Z,1001.5
2018-04-08T11:27:47.957Z,1001.5
2018-04-08T11:28:50.417Z,1001.5
2018-04-08T11:29:53.151Z,1001.5
2018-04-08T11:30:55.603Z,1001.5
2018-04-08T11:31:58.339Z,1001.4
2018-04-08T11:33:00.812Z,1001.6
2018-04-08T11:34:03.559Z,1001.5
2018-04-08T11:35:06.005Z,1001.5
2018-04-08T11:36:08.747Z,1001.5
2018-04-08T11:37:11.209Z,1001.5
2018-04-08T11:38:14.051Z,1001.6
2018-04-08T11:39:16.539Z,1001.5
2018-04-08T11:40:19.002Z,1001.5
2018-04-08T11:41:21.490Z,1001.5
2018-04-08T11:42:23.952Z,1001.5
2018-04-08T11:43:26.442Z,1001.6
2018-04-08T11:44:28.897Z,1001.6
2018-04-08T11:45:31.749Z,1001.5
2018-04-08T11:46:34.206Z,1001.5
2018-04-08T11:47:36.704Z,1001.5
2018-04-08T11:48:39.150Z,1001.5
2018-04-08T11:49:41.627Z,1001.5
2018-04-08T11:50:44.080Z,1001.6
2018-04-08T11:51:46.586Z,1001.5
2018-04-08T11:52:49.425Z,1001.4
2018-04-08T11:53:52.163Z,1001.5
2018-04-08T11:54:54.619Z,1001.5
2018-04-08T11:55:57.360Z,1001.4
2018-04-08T11:57:00.106Z,1001.4
2018-04-08T11:58:02.557Z,1001.5
2018-04-08T11:59:04.994Z,1001.5
2018-04-08T12:00:07.445Z,1001.4
2018-04-08T12:01:09.899Z,1001.5
2018-04-08T12:03:03.687Z,1001.4
2018-04-08T12:04:06.097Z,1001.4
2018-04-08T12:05:09.171Z,1001.4
2018-04-08T12:06:12.133Z,1001.4
2018-04-08T12:07:14.553Z,1001.4
2018-04-08T12:08:17.512Z,1001.4
2018-04-08T12:09:20.440Z,1001.4
2018-04-08T12:10:23.137Z,1001.3
2018-04-08T12:11:25.599Z,1001.3
2018-04-08T12:12:28.071Z,1001.4
2018-04-08T12:13:30.473Z,1001.4
2018-04-08T12:14:33.088Z,1001.3
2018-04-08T12:15:36.497Z,1001.3
2018-04-08T12:16:39.464Z,1001.3
2018-04-08T12:17:42.125Z,1001.3
2018-04-08T12:18:44.528Z,1001.3
2018-04-08T12:19:47.331Z,1001.3
2018-04-08T12:20:49.931Z,1001.3
2018-04-08T12:21:52.780Z,1001.2
2018-04-08T12:22:55.456Z,1001.2
2018-04-08T12:23:58.577Z,1001.2
2018-04-08T12:25:01.377Z,1001.2
2018-04-08T12:26:04.075Z,1001.2
2018-04-08T12:27:07.289Z,1001.2
2018-04-08T12:28:09.708Z,1001.2
2018-04-08T12:29:12.427Z,1001.2
2018-04-08T12:30:14.836Z,1001.2
2018-04-08T12:31:17.667Z,1001.3
2018-04-08T12:32:20.041Z,1001.2
2018-04-08T12:33:22.722Z,1001.2
2018-04-08T12:34:25.125Z,1001.1
2018-04-08T12:35:27.527Z,1001.1
2018-04-08T12:36:29.923Z,1001.1
2018-04-08T12:37:32.337Z,1001
2018-04-08T12:38:34.737Z,1001.1
2018-04-08T12:39:37.142Z,1001.1
2018-04-08T12:40:39.551Z,1001.1
2018-04-08T12:41:41.946Z,1001.2
2018-04-08T12:42:44.349Z,1001.1
2018-04-08T12:43:46.745Z,1001.2
2018-04-08T12:44:49.149Z,1001.1
2018-04-08T12:45:51.545Z,1001.1
2018-04-08T12:46:54.228Z,1001
2018-04-08T12:47:56.614Z,1001.1
2018-04-08T12:48:59.009Z,1001.1
2018-04-08T12:50:01.399Z,1001.2
2018-04-08T12:51:04.106Z,1001
2018-04-08T12:52:06.776Z,1001.2
2018-04-08T12:53:09.184Z,1001
2018-04-08T12:54:11.592Z,1001
2018-04-08T12:55:13.995Z,1001.1
2018-04-08T12:56:16.414Z,1001
2018-04-08T12:57:18.847Z,1001
2018-04-08T12:58:21.573Z,1001
2018-04-08T12:59:23.999Z,1001
2018-04-08T13:00:26.446Z,1001
2018-04-08T13:01:28.817Z,1001
2018-04-08T13:02:31.226Z,1000.9
2018-04-08T13:03:33.654Z,1001
2018-04-08T13:04:36.344Z,1000.9
2018-04-08T13:05:38.751Z,1000.9
2018-04-08T13:06:41.145Z,1000.9
2018-04-08T13:07:43.959Z,1000.8